Time;durP1;ratioP1;P1;durP2;ratioP2;P2;SDS_P1;SDS_P2;PMS_P1;PMS_P2;Temp;Humidity;BMP_temperature;BMP_pressure;BME280_temperature;BME280_humidity;BME280_pressure;Samples;Min_cycle;Max_cycle;Signal;HPM_P1;HPM_P2
2021/05/31 00:00:14;;;;;;;10.18;7.63;;;;;;;;;;1462018;40;20516;-80
2021/05/31 00:01:16;;;;;;;11.27;7.50;;;;;;;;;;1462555;40;20468;-80
2021/05/31 00:02:17;;;;;;;9.55;7.43;;;;;;;;;;1457737;40;20534;-80
2021/05/31 00:03:19;;;;;;;11.10;7.38;;;;;;;;;;1458174;40;20454;-80
2021/05/31 00:04:22;;;;;;;11.30;8.07;;;;;;;;;;1463737;40;20443;-80
2021/05/31 00:05:25;;;;;;;12.00;7.80;;;;;;;;;;1461729;40;20409;-80
2021/05/31 00:06:27;;;;;;;11.05;7.90;;;;;;;;;;1457553;40;20415;-80
2021/05/31 00:07:29;;;;;;;18.85;8.77;;;;;;;;;;1454011;40;20428;-80
2021/05/31 00:08:30;;;;;;;12.60;8.55;;;;;;;;;;1453405;40;20420;-79
2021/05/31 00:09:34;;;;;;;15.15;8.50;;;;;;;;;;1454109;40;20510;-81
2021/05/31 00:10:35;;;;;;;13.77;8.63;;;;;;;;;;1458827;40;20452;-81
2021/05/31 00:11:37;;;;;;;16.98;9.45;;;;;;;;;;1462542;40;20416;-81
2021/05/31 00:12:39;;;;;;;15.50;10.07;;;;;;;;;;1462108;40;20417;-80
2021/05/31 00:13:40;;;;;;;17.25;10.88;;;;;;;;;;1458439;40;20832;-81
2021/05/31 00:14:43;;;;;;;20.80;10.95;;;;;;;;;;1451726;40;20822;-81
2021/05/31 00:15:46;;;;;;;18.25;10.32;;;;;;;;;;1454316;40;20499;-81
2021/05/31 00:16:47;;;;;;;18.50;11.45;;;;;;;;;;1457999;40;20427;-81
2021/05/31 00:17:49;;;;;;;15.30;10.70;;;;;;;;;;1454787;40;20461;-81
2021/05/31 00:18:51;;;;;;;19.02;10.40;;;;;;;;;;1457955;40;20452;-81
2021/05/31 00:19:54;;;;;;;17.52;10.80;;;;;;;;;;1458948;40;20471;-80
2021/05/31 00:20:55;;;;;;;17.33;10.53;;;;;;;;;;1457667;40;20996;-81
2021/05/31 00:21:57;;;;;;;15.20;9.95;;;;;;;;;;1453487;40;21358;-81
2021/05/31 00:22:59;;;;;;;15.10;10.00;;;;;;;;;;1453620;40;20564;-80
2021/05/31 00:24:00;;;;;;;18.30;9.93;;;;;;;;;;1453741;40;20977;-81
2021/05/31 00:25:04;;;;;;;16.75;9.82;;;;;;;;;;1449334;40;20442;-80
2021/05/31 00:26:06;;;;;;;14.65;9.07;;;;;;;;;;1450303;40;20430;-80
2021/05/31 00:27:07;;;;;;;15.32;9.30;;;;;;;;;;1453067;40;20543;-80
2021/05/31 00:28:10;;;;;;;14.48;8.77;;;;;;;;;;1457701;40;20450;-80
2021/05/31 00:29:12;;;;;;;14.85;9.25;;;;;;;;;;1457715;40;20419;-80
2021/05/31 00:30:14;;;;;;;13.82;8.23;;;;;;;;;;1454370;40;20562;-80
2021/05/31 00:31:16;;;;;;;18.85;9.23;;;;;;;;;;1455159;40;20503;-80
2021/05/31 00:32:19;;;;;;;9.93;7.80;;;;;;;;;;1457283;40;20433;-80
2021/05/31 00:33:20;;;;;;;12.55;8.40;;;;;;;;;;1457619;40;20454;-80
2021/05/31 00:34:22;;;;;;;12.57;7.97;;;;;;;;;;1453707;40;20433;-80
2021/05/31 00:35:25;;;;;;;13.32;7.88;;;;;;;;;;1457481;40;20434;-80
2021/05/31 00:36:28;;;;;;;10.05;8.05;;;;;;;;;;1461147;40;20445;-80
2021/05/31 00:37:29;;;;;;;10.90;8.00;;;;;;;;;;1462011;40;20480;-80
2021/05/31 00:38:31;;;;;;;11.15;7.68;;;;;;;;;;1457471;40;20434;-80
2021/05/31 00:39:33;;;;;;;10.27;7.43;;;;;;;;;;1457650;40;21163;-80
2021/05/31 00:40:34;;;;;;;8.48;7.30;;;;;;;;;;1461945;40;20449;-80
2021/05/31 00:41:36;;;;;;;11.18;7.65;;;;;;;;;;1461877;40;20473;-80
2021/05/31 00:42:38;;;;;;;13.43;8.07;;;;;;;;;;1456624;40;20474;-80
2021/05/31 00:43:40;;;;;;;13.57;7.65;;;;;;;;;;1453537;40;20812;-80
2021/05/31 00:44:42;;;;;;;12.25;7.72;;;;;;;;;;1455918;40;20416;-81
2021/05/31 00:45:44;;;;;;;14.90;7.63;;;;;;;;;;1465684;40;20829;-80
2021/05/31 00:46:47;;;;;;;14.38;7.97;;;;;;;;;;1450931;40;20846;-81
2021/05/31 00:47:49;;;;;;;10.80;7.88;;;;;;;;;;1453604;40;20400;-80
2021/05/31 00:48:52;;;;;;;10.68;7.68;;;;;;;;;;1457669;40;20419;-80
2021/05/31 00:49:54;;;;;;;12.38;7.15;;;;;;;;;;1459879;40;20794;-81
2021/05/31 00:50:58;;;;;;;11.47;7.57;;;;;;;;;;1457711;40;20573;-80
2021/05/31 00:51:59;;;;;;;9.50;7.85;;;;;;;;;;1457593;40;20490;-81
2021/05/31 00:53:01;;;;;;;10.55;7.50;;;;;;;;;;1458677;40;20831;-81
2021/05/31 00:54:03;;;;;;;10.20;7.50;;;;;;;;;;1456362;40;20427;-80
2021/05/31 00:55:05;;;;;;;13.30;7.80;;;;;;;;;;1453892;40;20451;-81
2021/05/31 00:56:07;;;;;;;12.57;7.03;;;;;;;;;;1461351;40;20509;-81
2021/05/31 00:57:09;;;;;;;9.75;7.75;;;;;;;;;;1466129;40;20825;-81
2021/05/31 00:58:11;;;;;;;12.55;7.65;;;;;;;;;;1465194;40;20474;-80
2021/05/31 00:59:13;;;;;;;10.52;7.05;;;;;;;;;;1461908;40;20437;-80
2021/05/31 01:00:16;;;;;;;9.63;7.15;;;;;;;;;;1461336;40;20437;-81
2021/05/31 01:01:17;;;;;;;10.32;7.00;;;;;;;;;;1457844;40;20403;-80
2021/05/31 01:02:19;;;;;;;8.52;7.20;;;;;;;;;;1457629;40;20415;-81
2021/05/31 01:03:22;;;;;;;8.60;7.43;;;;;;;;;;1462685;40;20414;-81
2021/05/31 01:04:23;;;;;;;10.77;7.72;;;;;;;;;;1457773;40;20423;-80
2021/05/31 01:05:25;;;;;;;13.13;7.68;;;;;;;;;;1451135;40;20406;-80
2021/05/31 01:06:31;;;;;;;12.25;7.45;;;;;;;;;;1453622;40;20511;-81
2021/05/31 01:07:46;;;;;;;12.40;7.55;;;;;;;;;;1453648;40;20440;-81
2021/05/31 01:08:59;;;;;;;13.10;8.63;;;;;;;;;;1454313;40;20456;-81
2021/05/31 01:10:20;;;;;;;9.07;7.75;;;;;;;;;;1457153;40;20426;-81
2021/05/31 01:11:59;;;;;;;11.18;6.85;;;;;;;;;;1463479;40;20399;-80
2021/05/31 01:13:14;;;;;;;10.00;7.10;;;;;;;;;;1457645;40;20454;-80
2021/05/31 01:14:20;;;;;;;10.25;7.68;;;;;;;;;;1460077;40;20452;-81
2021/05/31 01:15:33;;;;;;;11.70;7.47;;;;;;;;;;1459509;40;20593;-81
2021/05/31 01:17:26;;;;;;;11.10;7.47;;;;;;;;;;1461886;40;20795;-80
2021/05/31 01:18:31;;;;;;;10.15;6.90;;;;;;;;;;1444900;41;20762;-81
2021/05/31 01:19:46;;;;;;;11.13;7.20;;;;;;;;;;1457750;40;20431;-81
2021/05/31 01:21:10;;;;;;;8.43;6.75;;;;;;;;;;1465133;40;20443;-81
2021/05/31 01:22:14;;;;;;;13.82;7.47;;;;;;;;;;1466339;40;20427;-81
2021/05/31 01:23:17;;;;;;;10.05;7.03;;;;;;;;;;1465975;40;20419;-81
2021/05/31 01:24:49;;;;;;;12.13;8.45;;;;;;;;;;1466164;40;20526;-81
2021/05/31 01:26:05;;;;;;;11.60;6.97;;;;;;;;;;1465920;40;20416;-81
2021/05/31 01:27:22;;;;;;;11.48;7.00;;;;;;;;;;1466239;40;20778;-81
2021/05/31 01:28:32;;;;;;;11.13;7.30;;;;;;;;;;1461053;40;20425;-81
2021/05/31 01:29:34;;;;;;;8.30;7.30;;;;;;;;;;1456503;40;20423;-81
2021/05/31 01:30:40;;;;;;;13.80;7.78;;;;;;;;;;1458045;40;20425;-81
2021/05/31 01:31:49;;;;;;;11.13;7.30;;;;;;;;;;1457752;40;20439;-81
2021/05/31 01:32:53;;;;;;;11.13;7.10;;;;;;;;;;1461327;40;20742;-81
2021/05/31 01:33:56;;;;;;;13.48;7.60;;;;;;;;;;1466059;40;20448;-81
2021/05/31 01:35:01;;;;;;;12.43;7.13;;;;;;;;;;1460433;40;20469;-81
2021/05/31 01:36:04;;;;;;;10.07;7.38;;;;;;;;;;1457469;40;21143;-81
2021/05/31 01:37:12;;;;;;;9.57;7.03;;;;;;;;;;1457768;40;20514;-81
2021/05/31 01:38:18;;;;;;;9.13;7.43;;;;;;;;;;1457531;40;20410;-81
2021/05/31 01:39:25;;;;;;;11.27;7.63;;;;;;;;;;1457961;40;20470;-81
2021/05/31 01:40:27;;;;;;;8.32;6.70;;;;;;;;;;1457645;40;20530;-81
2021/05/31 01:41:29;;;;;;;8.77;7.13;;;;;;;;;;1458242;40;20505;-81
2021/05/31 01:42:31;;;;;;;13.73;7.25;;;;;;;;;;1450740;40;20521;-81
2021/05/31 01:43:34;;;;;;;11.85;7.57;;;;;;;;;;1449514;40;20449;-82
2021/05/31 01:44:37;;;;;;;11.52;7.40;;;;;;;;;;1455113;40;20484;-81
2021/05/31 01:45:39;;;;;;;11.10;7.55;;;;;;;;;;1459888;40;20414;-81
2021/05/31 01:46:42;;;;;;;11.55;7.00;;;;;;;;;;1449929;40;20481;-81
2021/05/31 01:47:44;;;;;;;12.82;7.97;;;;;;;;;;1448780;40;20408;-82
2021/05/31 01:48:47;;;;;;;10.35;6.85;;;;;;;;;;1457403;40;20468;-81
2021/05/31 01:49:49;;;;;;;11.13;7.28;;;;;;;;;;1465578;40;20812;-81
2021/05/31 01:50:52;;;;;;;12.13;7.35;;;;;;;;;;1465894;40;20484;-81
2021/05/31 01:51:54;;;;;;;12.52;7.75;;;;;;;;;;1465781;40;20409;-81
2021/05/31 01:52:57;;;;;;;10.35;7.57;;;;;;;;;;1458439;40;20426;-81
2021/05/31 01:54:00;;;;;;;10.82;7.15;;;;;;;;;;1457947;40;20414;-81
2021/05/31 01:55:02;;;;;;;11.95;7.93;;;;;;;;;;1461741;40;20432;-80
2021/05/31 01:56:04;;;;;;;10.13;7.50;;;;;;;;;;1453869;40;20561;-81
2021/05/31 01:57:07;;;;;;;11.40;7.65;;;;;;;;;;1449697;40;20511;-81
2021/05/31 01:58:09;;;;;;;10.27;7.72;;;;;;;;;;1460232;40;20551;-81
2021/05/31 01:59:12;;;;;;;12.75;7.97;;;;;;;;;;1462553;40;21166;-82
2021/05/31 02:00:15;;;;;;;11.25;7.53;;;;;;;;;;1458315;40;20427;-82
2021/05/31 02:01:23;;;;;;;12.73;7.13;;;;;;;;;;1460829;40;20679;-81
2021/05/31 02:02:25;;;;;;;12.05;8.55;;;;;;;;;;1457725;40;20430;-81
2021/05/31 02:03:28;;;;;;;11.32;7.50;;;;;;;;;;1457448;40;20527;-81
2021/05/31 02:04:30;;;;;;;14.95;8.30;;;;;;;;;;1457942;40;20423;-81
2021/05/31 02:05:34;;;;;;;9.95;7.70;;;;;;;;;;1458618;40;20431;-81
2021/05/31 02:06:35;;;;;;;11.75;8.07;;;;;;;;;;1453300;40;21071;-82
2021/05/31 02:07:38;;;;;;;11.50;8.00;;;;;;;;;;1445675;41;20463;-80
2021/05/31 02:08:40;;;;;;;15.13;8.23;;;;;;;;;;1449419;40;20594;-81
2021/05/31 02:09:42;;;;;;;11.77;8.52;;;;;;;;;;1453249;40;20464;-80
2021/05/31 02:10:46;;;;;;;11.70;7.88;;;;;;;;;;1453205;40;20786;-81
2021/05/31 02:12:04;;;;;;;11.15;8.38;;;;;;;;;;1457453;40;20486;-82
2021/05/31 02:13:08;;;;;;;9.55;8.27;;;;;;;;;;1461668;40;21033;-81
2021/05/31 02:14:30;;;;;;;11.23;8.13;;;;;;;;;;1453577;40;20442;-81
2021/05/31 02:15:49;;;;;;;12.55;8.25;;;;;;;;;;1452877;40;20878;-81
2021/05/31 02:17:00;;;;;;;11.52;9.13;;;;;;;;;;1457819;40;20499;-81
2021/05/31 02:18:13;;;;;;;12.40;9.15;;;;;;;;;;1457991;40;20399;-81
2021/05/31 02:19:18;;;;;;;9.57;8.52;;;;;;;;;;1458457;40;20438;-82
2021/05/31 02:20:22;;;;;;;12.10;8.50;;;;;;;;;;1456923;40;20438;-82
2021/05/31 02:21:24;;;;;;;12.50;9.07;;;;;;;;;;1457677;40;20427;-82
2021/05/31 02:22:28;;;;;;;11.43;8.77;;;;;;;;;;1452597;40;20716;-82
2021/05/31 02:23:31;;;;;;;15.27;9.23;;;;;;;;;;1453212;40;20445;-81
2021/05/31 02:24:34;;;;;;;14.55;8.88;;;;;;;;;;1457650;40;20411;-82
2021/05/31 02:25:36;;;;;;;13.52;8.60;;;;;;;;;;1453436;40;20432;-81
2021/05/31 02:26:38;;;;;;;10.77;8.40;;;;;;;;;;1453697;40;20464;-81
2021/05/31 02:27:42;;;;;;;11.83;9.03;;;;;;;;;;1461981;40;20512;-80
2021/05/31 02:28:46;;;;;;;10.35;8.68;;;;;;;;;;1456795;40;20407;-81
2021/05/31 02:29:47;;;;;;;13.00;8.98;;;;;;;;;;1448229;41;20906;-81
2021/05/31 02:30:49;;;;;;;12.50;8.85;;;;;;;;;;1451872;40;20429;-83
2021/05/31 02:31:53;;;;;;;12.48;8.70;;;;;;;;;;1455273;40;20405;-81
2021/05/31 02:33:00;;;;;;;9.40;8.50;;;;;;;;;;1455602;40;20416;-80
2021/05/31 02:34:01;;;;;;;12.88;8.70;;;;;;;;;;1455233;40;20680;-80
2021/05/31 02:35:10;;;;;;;12.65;8.65;;;;;;;;;;1457079;40;20407;-80
2021/05/31 02:36:12;;;;;;;12.20;9.40;;;;;;;;;;1457343;40;20432;-81
2021/05/31 02:37:15;;;;;;;16.65;9.90;;;;;;;;;;1457772;40;20422;-81
2021/05/31 02:38:16;;;;;;;15.93;9.43;;;;;;;;;;1461808;40;20540;-80
2021/05/31 02:39:18;;;;;;;15.05;9.27;;;;;;;;;;1457640;40;20406;-81
2021/05/31 02:40:22;;;;;;;14.77;9.18;;;;;;;;;;1457753;40;20493;-81
2021/05/31 02:41:23;;;;;;;15.32;9.27;;;;;;;;;;1462220;40;20434;-80
2021/05/31 02:42:25;;;;;;;13.75;8.80;;;;;;;;;;1457284;40;20470;-81
2021/05/31 02:43:27;;;;;;;18.10;10.18;;;;;;;;;;1453608;40;20421;-81
2021/05/31 02:44:28;;;;;;;10.82;9.30;;;;;;;;;;1450911;40;20437;-81
2021/05/31 02:45:32;;;;;;;15.10;9.85;;;;;;;;;;1457238;40;20460;-81
2021/05/31 02:46:34;;;;;;;12.57;9.63;;;;;;;;;;1453904;40;20416;-80
2021/05/31 02:47:36;;;;;;;10.57;9.38;;;;;;;;;;1460944;40;20400;-81
2021/05/31 02:48:38;;;;;;;20.10;10.32;;;;;;;;;;1465832;40;20413;-81
2021/05/31 02:49:40;;;;;;;13.80;10.00;;;;;;;;;;1465901;40;20454;-81
2021/05/31 02:50:41;;;;;;;13.82;9.77;;;;;;;;;;1461880;40;20550;-81
2021/05/31 02:51:44;;;;;;;13.45;9.65;;;;;;;;;;1457648;40;20450;-80
2021/05/31 02:52:46;;;;;;;13.85;9.75;;;;;;;;;;1457924;40;20527;-80
2021/05/31 02:53:47;;;;;;;16.20;10.70;;;;;;;;;;1462166;40;20421;-81
2021/05/31 02:54:49;;;;;;;15.95;10.48;;;;;;;;;;1461655;40;20540;-81
2021/05/31 02:55:51;;;;;;;17.60;10.15;;;;;;;;;;1457445;40;21034;-81
2021/05/31 02:56:52;;;;;;;12.18;10.10;;;;;;;;;;1456885;40;20410;-81
2021/05/31 02:57:55;;;;;;;12.23;9.88;;;;;;;;;;1457358;40;20426;-81
2021/05/31 02:58:57;;;;;;;17.77;11.45;;;;;;;;;;1448599;41;20394;-80
2021/05/31 02:59:59;;;;;;;16.63;10.20;;;;;;;;;;1451290;40;20419;-81
2021/05/31 03:01:01;;;;;;;14.40;10.10;;;;;;;;;;1456037;40;20416;-81
2021/05/31 03:02:03;;;;;;;15.80;10.90;;;;;;;;;;1449501;40;20792;-81
2021/05/31 03:03:05;;;;;;;14.13;10.63;;;;;;;;;;1453532;40;20401;-81
2021/05/31 03:04:06;;;;;;;13.98;11.13;;;;;;;;;;1457437;40;20466;-80
2021/05/31 03:05:11;;;;;;;17.38;10.80;;;;;;;;;;1457220;40;20501;-80
2021/05/31 03:06:12;;;;;;;13.20;10.32;;;;;;;;;;1461566;40;20409;-81
2021/05/31 03:07:14;;;;;;;14.90;11.52;;;;;;;;;;1461762;40;20547;-80
2021/05/31 03:08:15;;;;;;;11.20;9.90;;;;;;;;;;1457032;40;20473;-81
2021/05/31 03:09:17;;;;;;;14.32;10.38;;;;;;;;;;1457268;40;20466;-81
2021/05/31 03:10:19;;;;;;;15.85;10.60;;;;;;;;;;1457371;40;20519;-81
2021/05/31 03:11:21;;;;;;;12.48;10.68;;;;;;;;;;1461320;40;20533;-81
2021/05/31 03:12:22;;;;;;;13.20;9.85;;;;;;;;;;1460305;40;20432;-80
2021/05/31 03:13:24;;;;;;;15.40;11.32;;;;;;;;;;1457137;40;20419;-81
2021/05/31 03:14:26;;;;;;;13.55;10.65;;;;;;;;;;1454142;40;20786;-81
2021/05/31 03:15:28;;;;;;;15.77;10.88;;;;;;;;;;1461573;40;20412;-80
2021/05/31 03:16:29;;;;;;;16.48;11.32;;;;;;;;;;1457206;40;20494;-81
2021/05/31 03:17:31;;;;;;;16.65;11.88;;;;;;;;;;1457688;40;20468;-80
2021/05/31 03:18:33;;;;;;;17.05;12.80;;;;;;;;;;1465735;40;20943;-81
2021/05/31 03:19:34;;;;;;;16.73;12.10;;;;;;;;;;1463781;40;20808;-80
2021/05/31 03:20:36;;;;;;;21.63;12.70;;;;;;;;;;1461334;40;20425;-81
2021/05/31 03:21:38;;;;;;;16.27;11.63;;;;;;;;;;1453317;40;21107;-80
2021/05/31 03:22:40;;;;;;;17.77;11.05;;;;;;;;;;1453309;40;20427;-81
2021/05/31 03:23:42;;;;;;;18.05;11.55;;;;;;;;;;1457804;40;20418;-81
2021/05/31 03:24:43;;;;;;;16.75;11.70;;;;;;;;;;1458175;40;20447;-81
2021/05/31 03:25:45;;;;;;;18.23;11.65;;;;;;;;;;1462171;40;20433;-81
2021/05/31 03:26:46;;;;;;;16.65;11.93;;;;;;;;;;1462625;40;20444;-81
2021/05/31 03:27:48;;;;;;;14.27;11.45;;;;;;;;;;1458072;40;20807;-81
2021/05/31 03:28:50;;;;;;;17.67;12.30;;;;;;;;;;1457457;40;20403;-81
2021/05/31 03:29:52;;;;;;;18.38;12.18;;;;;;;;;;1459886;40;20515;-81
2021/05/31 03:30:54;;;;;;;18.27;12.90;;;;;;;;;;1461438;40;20413;-80
2021/05/31 03:31:56;;;;;;;16.55;11.95;;;;;;;;;;1457300;40;20435;-80
2021/05/31 03:32:59;;;;;;;21.70;12.07;;;;;;;;;;1456965;40;20427;-80
2021/05/31 03:34:00;;;;;;;19.92;12.38;;;;;;;;;;1461964;40;20492;-81
2021/05/31 03:35:03;;;;;;;18.48;12.13;;;;;;;;;;1460400;40;20421;-81
2021/05/31 03:36:05;;;;;;;22.00;13.48;;;;;;;;;;1457866;40;21211;-81
2021/05/31 03:37:06;;;;;;;17.98;12.15;;;;;;;;;;1453424;40;20645;-81
2021/05/31 03:38:08;;;;;;;21.42;13.10;;;;;;;;;;1462132;40;20445;-81
2021/05/31 03:39:09;;;;;;;16.05;12.77;;;;;;;;;;1461925;40;20517;-80
2021/05/31 03:40:12;;;;;;;17.58;12.82;;;;;;;;;;1461826;40;20939;-80
2021/05/31 03:41:14;;;;;;;22.17;13.52;;;;;;;;;;1466375;40;20508;-80
2021/05/31 03:42:16;;;;;;;17.02;12.10;;;;;;;;;;1461614;40;20837;-80
2021/05/31 03:43:17;;;;;;;21.63;13.35;;;;;;;;;;1457740;40;20470;-80
2021/05/31 03:44:19;;;;;;;17.92;12.73;;;;;;;;;;1458757;40;20527;-80
2021/05/31 03:45:22;;;;;;;26.27;13.18;;;;;;;;;;1457779;40;20446;-80
2021/05/31 03:46:24;;;;;;;16.98;13.85;;;;;;;;;;1453871;40;20486;-80
2021/05/31 03:47:25;;;;;;;19.95;13.60;;;;;;;;;;1457775;40;20438;-80
2021/05/31 03:48:27;;;;;;;17.77;12.77;;;;;;;;;;1453760;40;20464;-80
2021/05/31 03:49:29;;;;;;;21.13;13.63;;;;;;;;;;1453819;40;20862;-80
2021/05/31 03:50:31;;;;;;;18.30;13.48;;;;;;;;;;1462478;40;20441;-81
2021/05/31 03:51:33;;;;;;;20.33;13.30;;;;;;;;;;1462218;40;20409;-81
2021/05/31 03:52:35;;;;;;;16.63;13.05;;;;;;;;;;1462504;40;20432;-81
2021/05/31 03:53:40;;;;;;;20.63;13.50;;;;;;;;;;1462228;40;20644;-81
2021/05/31 03:54:42;;;;;;;24.20;13.73;;;;;;;;;;1462335;40;20429;-81
2021/05/31 03:55:43;;;;;;;18.13;13.90;;;;;;;;;;1462178;40;20579;-81
2021/05/31 03:56:45;;;;;;;19.33;14.13;;;;;;;;;;1461728;40;20806;-81
2021/05/31 03:57:47;;;;;;;19.52;13.35;;;;;;;;;;1461796;40;20393;-81
2021/05/31 03:58:52;;;;;;;22.80;14.90;;;;;;;;;;1457602;40;20419;-81
2021/05/31 03:59:53;;;;;;;17.87;14.13;;;;;;;;;;1452315;40;20413;-81
2021/05/31 04:00:55;;;;;;;20.90;14.30;;;;;;;;;;1457472;40;20513;-81
2021/05/31 04:01:57;;;;;;;22.13;13.70;;;;;;;;;;1453611;40;20449;-81
2021/05/31 04:02:59;;;;;;;21.48;14.32;;;;;;;;;;1449624;40;20426;-81
2021/05/31 04:04:01;;;;;;;19.60;14.80;;;;;;;;;;1453704;40;20545;-81
2021/05/31 04:05:03;;;;;;;20.35;14.30;;;;;;;;;;1455226;40;20710;-80
2021/05/31 04:06:30;;;;;;;21.05;14.75;;;;;;;;;;1457698;40;20844;-80
2021/05/31 04:11:42;;;;;;;18.33;14.45;;;;;;;;;;1458036;40;20447;-81
2021/05/31 04:12:43;;;;;;;17.98;14.52;;;;;;;;;;1459924;40;20420;-81
2021/05/31 04:13:45;;;;;;;20.13;13.88;;;;;;;;;;1457708;40;20417;-81
2021/05/31 04:14:46;;;;;;;18.67;13.75;;;;;;;;;;1456989;40;20585;-81
2021/05/31 04:15:48;;;;;;;20.42;13.35;;;;;;;;;;1456685;40;20417;-81
2021/05/31 04:16:53;;;;;;;22.80;14.57;;;;;;;;;;1458255;40;20416;-81
2021/05/31 04:17:54;;;;;;;18.85;14.82;;;;;;;;;;1462658;40;20415;-79
2021/05/31 04:18:56;;;;;;;21.63;13.90;;;;;;;;;;1462435;40;20509;-81
2021/05/31 04:19:58;;;;;;;21.55;13.55;;;;;;;;;;1462540;40;20407;-80
2021/05/31 04:20:59;;;;;;;22.10;14.57;;;;;;;;;;1459663;40;20443;-81
2021/05/31 04:22:01;;;;;;;22.23;14.40;;;;;;;;;;1463273;40;20429;-80
2021/05/31 04:23:03;;;;;;;17.73;13.57;;;;;;;;;;1463659;40;20480;-81
2021/05/31 04:24:06;;;;;;;16.77;13.20;;;;;;;;;;1462945;40;20416;-80
2021/05/31 04:25:08;;;;;;;18.13;13.68;;;;;;;;;;1462119;40;20483;-81
2021/05/31 04:26:10;;;;;;;20.98;14.18;;;;;;;;;;1462056;40;20421;-81
2021/05/31 04:27:11;;;;;;;20.75;13.50;;;;;;;;;;1460133;40;20429;-81
2021/05/31 04:28:13;;;;;;;22.65;13.85;;;;;;;;;;1462192;40;20518;-81
2021/05/31 04:29:15;;;;;;;19.48;13.50;;;;;;;;;;1461389;40;20416;-81
2021/05/31 04:30:18;;;;;;;16.77;13.00;;;;;;;;;;1460299;40;20413;-81
2021/05/31 04:31:19;;;;;;;19.10;13.77;;;;;;;;;;1457715;40;20714;-81
2021/05/31 04:32:21;;;;;;;20.23;13.57;;;;;;;;;;1453348;40;20440;-81
2021/05/31 04:33:23;;;;;;;15.20;13.05;;;;;;;;;;1450073;40;20692;-81
2021/05/31 04:34:25;;;;;;;20.52;13.35;;;;;;;;;;1454112;40;20416;-80
2021/05/31 04:35:26;;;;;;;16.27;12.98;;;;;;;;;;1455214;40;20542;-81
2021/05/31 04:36:29;;;;;;;20.08;13.70;;;;;;;;;;1458283;40;20428;-81
2021/05/31 04:37:33;;;;;;;19.05;13.20;;;;;;;;;;1461860;40;20433;-81
2021/05/31 04:38:34;;;;;;;20.23;12.88;;;;;;;;;;1466403;40;20407;-81
2021/05/31 04:39:37;;;;;;;17.25;13.80;;;;;;;;;;1460050;40;20417;-80
2021/05/31 04:40:38;;;;;;;18.95;13.00;;;;;;;;;;1458076;40;20470;-81
2021/05/31 04:41:41;;;;;;;20.60;13.52;;;;;;;;;;1457765;40;20414;-80
2021/05/31 04:42:42;;;;;;;18.67;13.93;;;;;;;;;;1458020;40;20458;-81
2021/05/31 04:43:44;;;;;;;20.92;13.75;;;;;;;;;;1462119;40;20738;-81
2021/05/31 04:44:46;;;;;;;20.77;14.70;;;;;;;;;;1447500;40;20440;-81
2021/05/31 04:45:47;;;;;;;17.45;13.48;;;;;;;;;;1449964;40;20413;-81
2021/05/31 04:46:49;;;;;;;17.70;13.63;;;;;;;;;;1461889;40;20433;-81
2021/05/31 04:47:51;;;;;;;18.05;13.55;;;;;;;;;;1457560;40;20442;-81
2021/05/31 04:48:54;;;;;;;19.38;13.93;;;;;;;;;;1457966;40;20426;-81
2021/05/31 04:49:55;;;;;;;19.77;12.57;;;;;;;;;;1457709;40;20535;-81
2021/05/31 04:50:57;;;;;;;15.85;12.80;;;;;;;;;;1458201;40;20451;-81
2021/05/31 04:52:00;;;;;;;23.38;13.43;;;;;;;;;;1461224;40;20775;-82
2021/05/31 04:53:02;;;;;;;18.45;14.13;;;;;;;;;;1462335;40;20426;-81
2021/05/31 04:54:04;;;;;;;14.23;12.50;;;;;;;;;;1462242;40;20564;-81
2021/05/31 04:55:14;;;;;;;20.35;13.70;;;;;;;;;;1457784;40;21309;-81
2021/05/31 04:56:16;;;;;;;19.00;13.63;;;;;;;;;;1453860;40;20409;-81
2021/05/31 04:57:18;;;;;;;17.92;13.85;;;;;;;;;;1457762;40;20434;-81
2021/05/31 04:58:21;;;;;;;15.90;13.32;;;;;;;;;;1457408;40;20446;-81
2021/05/31 04:59:22;;;;;;;20.80;13.93;;;;;;;;;;1457078;40;20447;-81
2021/05/31 05:00:24;;;;;;;19.23;14.35;;;;;;;;;;1457995;40;20483;-81
2021/05/31 05:01:26;;;;;;;17.48;14.23;;;;;;;;;;1456531;40;20455;-81
2021/05/31 05:02:27;;;;;;;18.83;13.25;;;;;;;;;;1457215;40;20423;-81
2021/05/31 05:03:29;;;;;;;20.52;14.65;;;;;;;;;;1462493;40;20420;-80
2021/05/31 05:04:30;;;;;;;18.85;13.70;;;;;;;;;;1461372;40;20472;-81
2021/05/31 05:05:32;;;;;;;15.75;13.07;;;;;;;;;;1462236;40;20424;-81
2021/05/31 05:06:34;;;;;;;17.02;14.35;;;;;;;;;;1457847;40;20563;-81
2021/05/31 05:07:36;;;;;;;17.77;13.55;;;;;;;;;;1457791;40;20430;-81
2021/05/31 05:08:37;;;;;;;19.73;13.52;;;;;;;;;;1457523;40;20482;-81
2021/05/31 05:09:39;;;;;;;18.02;13.52;;;;;;;;;;1453788;40;20734;-81
2021/05/31 05:10:41;;;;;;;19.38;14.05;;;;;;;;;;1454015;40;20425;-81
2021/05/31 05:11:43;;;;;;;20.88;14.23;;;;;;;;;;1453212;40;20509;-81
2021/05/31 05:12:47;;;;;;;18.65;14.15;;;;;;;;;;1453936;40;20409;-82
2021/05/31 05:13:50;;;;;;;19.75;13.95;;;;;;;;;;1462181;40;20537;-82
2021/05/31 05:14:52;;;;;;;19.08;13.68;;;;;;;;;;1456419;40;20431;-82
2021/05/31 05:15:53;;;;;;;19.02;13.27;;;;;;;;;;1458819;40;20427;-81
2021/05/31 05:16:55;;;;;;;20.02;14.10;;;;;;;;;;1457605;40;20849;-82
2021/05/31 05:17:57;;;;;;;18.55;13.32;;;;;;;;;;1454275;40;20423;-82
2021/05/31 05:18:59;;;;;;;18.15;13.32;;;;;;;;;;1454624;40;20476;-82
2021/05/31 05:20:02;;;;;;;19.13;14.15;;;;;;;;;;1454142;40;20404;-82
2021/05/31 05:21:04;;;;;;;16.25;13.57;;;;;;;;;;1453878;40;20420;-81
2021/05/31 05:22:05;;;;;;;17.63;13.63;;;;;;;;;;1457727;40;20479;-81
2021/05/31 05:23:07;;;;;;;20.05;14.18;;;;;;;;;;1457656;40;20869;-81
2021/05/31 05:24:25;;;;;;;21.77;13.50;;;;;;;;;;1457694;40;20430;-82
2021/05/31 05:25:27;;;;;;;20.80;13.50;;;;;;;;;;1458630;40;20467;-81
2021/05/31 05:26:28;;;;;;;18.60;13.80;;;;;;;;;;1454663;40;20424;-81
2021/05/31 05:27:30;;;;;;;22.60;13.48;;;;;;;;;;1453975;40;20437;-81
2021/05/31 05:28:32;;;;;;;19.67;13.82;;;;;;;;;;1458216;40;20422;-81
2021/05/31 05:29:34;;;;;;;16.95;13.68;;;;;;;;;;1459723;40;20414;-82
2021/05/31 05:30:36;;;;;;;16.55;13.15;;;;;;;;;;1459208;40;20422;-82
2021/05/31 05:31:38;;;;;;;16.33;13.63;;;;;;;;;;1458535;40;20476;-81
2021/05/31 05:32:48;;;;;;;18.38;14.27;;;;;;;;;;1453331;40;20435;-82
2021/05/31 05:33:50;;;;;;;18.75;13.77;;;;;;;;;;1455265;40;20427;-82
2021/05/31 05:34:57;;;;;;;18.88;14.27;;;;;;;;;;1461859;40;20445;-82
2021/05/31 05:36:10;;;;;;;19.15;13.35;;;;;;;;;;1449612;41;20414;-81
2021/05/31 05:37:18;;;;;;;23.73;13.95;;;;;;;;;;1451551;40;20437;-81
2021/05/31 05:42:17;;;;;;;24.67;14.77;;;;;;;;;;1459831;40;20402;-81
2021/05/31 05:47:55;;;;;;;24.13;15.00;;;;;;;;;;1457140;40;20668;-81
2021/05/31 05:48:57;;;;;;;20.20;14.75;;;;;;;;;;1453675;40;20471;-81
2021/05/31 05:49:58;;;;;;;23.27;16.20;;;;;;;;;;1453893;40;20415;-82
2021/05/31 05:51:09;;;;;;;17.85;14.70;;;;;;;;;;1462313;40;20421;-81
2021/05/31 05:52:11;;;;;;;22.27;15.35;;;;;;;;;;1462078;40;21209;-81
2021/05/31 05:53:13;;;;;;;20.63;14.70;;;;;;;;;;1462136;40;20430;-82
2021/05/31 05:54:15;;;;;;;21.13;15.40;;;;;;;;;;1457322;40;20418;-81
2021/05/31 05:55:17;;;;;;;18.90;14.82;;;;;;;;;;1453420;40;20401;-81
2021/05/31 05:56:20;;;;;;;22.33;15.88;;;;;;;;;;1453035;40;20432;-81
2021/05/31 05:57:22;;;;;;;21.23;15.50;;;;;;;;;;1453846;40;20424;-81
2021/05/31 05:58:27;;;;;;;22.23;15.07;;;;;;;;;;1461381;40;20561;-81
2021/05/31 05:59:29;;;;;;;21.30;15.55;;;;;;;;;;1460817;40;20437;-81
2021/05/31 06:00:32;;;;;;;22.67;15.98;;;;;;;;;;1457931;40;21040;-81
2021/05/31 06:01:36;;;;;;;25.67;16.45;;;;;;;;;;1461550;40;20417;-81
2021/05/31 06:02:39;;;;;;;21.73;15.93;;;;;;;;;;1461779;40;20421;-80
2021/05/31 06:03:41;;;;;;;19.33;14.50;;;;;;;;;;1462048;40;20417;-81
2021/05/31 06:04:42;;;;;;;21.45;15.95;;;;;;;;;;1461708;40;20424;-80
2021/05/31 06:05:44;;;;;;;19.85;15.55;;;;;;;;;;1453522;40;20404;-80
2021/05/31 06:06:46;;;;;;;20.80;15.45;;;;;;;;;;1451920;40;20479;-80
2021/05/31 06:07:48;;;;;;;19.70;14.88;;;;;;;;;;1449627;40;20509;-79
2021/05/31 06:08:51;;;;;;;20.60;15.65;;;;;;;;;;1448995;40;20414;-79
2021/05/31 06:09:52;;;;;;;24.05;16.48;;;;;;;;;;1453698;40;20814;-79
2021/05/31 06:10:54;;;;;;;19.08;14.75;;;;;;;;;;1457228;40;20573;-78
2021/05/31 06:11:55;;;;;;;22.33;15.93;;;;;;;;;;1451314;40;20443;-79
2021/05/31 06:12:57;;;;;;;21.95;15.18;;;;;;;;;;1453453;40;20503;-78
2021/05/31 06:13:59;;;;;;;22.77;15.40;;;;;;;;;;1461620;40;20465;-78
2021/05/31 06:15:00;;;;;;;20.93;15.73;;;;;;;;;;1460834;40;20475;-79
2021/05/31 06:16:03;;;;;;;26.23;16.45;;;;;;;;;;1459363;40;20413;-78
2021/05/31 06:17:04;;;;;;;22.52;15.60;;;;;;;;;;1457296;40;20681;-79
2021/05/31 06:18:06;;;;;;;20.77;15.38;;;;;;;;;;1453583;40;20420;-79
2021/05/31 06:19:08;;;;;;;21.63;15.13;;;;;;;;;;1457648;40;20602;-78
2021/05/31 06:20:10;;;;;;;19.90;15.77;;;;;;;;;;1461265;40;20435;-79
2021/05/31 06:21:12;;;;;;;19.58;15.18;;;;;;;;;;1457729;40;20821;-78
2021/05/31 06:22:14;;;;;;;22.20;16.05;;;;;;;;;;1454119;40;20524;-79
2021/05/31 06:23:15;;;;;;;23.55;15.80;;;;;;;;;;1458129;40;20833;-79
2021/05/31 06:24:17;;;;;;;20.17;15.40;;;;;;;;;;1462822;40;20507;-78